sensor_id;sensor_type;location;lat;lon;timestamp;temperature;humidity
65707;SHT31;52423;43.512;5.220;2023-11-18T00:02:15;10.68;65.79
65707;SHT31;52423;43.512;5.220;2023-11-18T00:04:41;10.65;65.60
65707;SHT31;52423;43.512;5.220;2023-11-18T00:07:06;10.65;66.16
65707;SHT31;52423;43.512;5.220;2023-11-18T00:09:32;10.63;66.00
65707;SHT31;52423;43.512;5.220;2023-11-18T00:11:57;10.61;65.41
65707;SHT31;52423;43.512;5.220;2023-11-18T00:14:22;10.57;65.91
65707;SHT31;52423;43.512;5.220;2023-11-18T00:16:48;10.60;65.68
65707;SHT31;52423;43.512;5.220;2023-11-18T00:19:13;10.59;65.71
65707;SHT31;52423;43.512;5.220;2023-11-18T00:21:39;10.63;66.40
65707;SHT31;52423;43.512;5.220;2023-11-18T00:24:05;10.60;66.45
65707;SHT31;52423;43.512;5.220;2023-11-18T00:26:30;10.64;66.16
65707;SHT31;52423;43.512;5.220;2023-11-18T00:28:56;10.61;66.23
65707;SHT31;52423;43.512;5.220;2023-11-18T00:31:21;10.65;65.52
65707;SHT31;52423;43.512;5.220;2023-11-18T00:33:46;10.64;66.10
65707;SHT31;52423;43.512;5.220;2023-11-18T00:36:12;10.64;66.68
65707;SHT31;52423;43.512;5.220;2023-11-18T00:38:37;10.67;65.93
65707;SHT31;52423;43.512;5.220;2023-11-18T00:41:03;10.67;66.07
65707;SHT31;52423;43.512;5.220;2023-11-18T00:43:30;10.71;65.38
65707;SHT31;52423;43.512;5.220;2023-11-18T00:45:56;10.70;65.92
65707;SHT31;52423;43.512;5.220;2023-11-18T00:48:24;10.75;65.27
65707;SHT31;52423;43.512;5.220;2023-11-18T00:50:50;10.80;65.93
65707;SHT31;52423;43.512;5.220;2023-11-18T00:53:15;10.78;65.53
65707;SHT31;52423;43.512;5.220;2023-11-18T00:55:40;10.73;66.54
65707;SHT31;52423;43.512;5.220;2023-11-18T00:58:06;10.71;66.49
65707;SHT31;52423;43.512;5.220;2023-11-18T01:00:31;10.73;66.00
65707;SHT31;52423;43.512;5.220;2023-11-18T01:02:57;10.70;66.13
65707;SHT31;52423;43.512;5.220;2023-11-18T01:05:22;10.74;66.07
65707;SHT31;52423;43.512;5.220;2023-11-18T01:07:48;10.65;66.63
65707;SHT31;52423;43.512;5.220;2023-11-18T01:10:13;10.70;66.58
65707;SHT31;52423;43.512;5.220;2023-11-18T01:12:39;10.65;66.72
65707;SHT31;52423;43.512;5.220;2023-11-18T01:15:05;10.70;66.50
65707;SHT31;52423;43.512;5.220;2023-11-18T01:17:32;10.67;66.34
65707;SHT31;52423;43.512;5.220;2023-11-18T01:19:58;10.63;66.91
65707;SHT31;52423;43.512;5.220;2023-11-18T01:22:24;10.64;67.11
65707;SHT31;52423;43.512;5.220;2023-11-18T01:24:49;10.63;66.75
65707;SHT31;52423;43.512;5.220;2023-11-18T01:27:16;10.64;66.73
65707;SHT31;52423;43.512;5.220;2023-11-18T01:29:44;10.64;66.44
65707;SHT31;52423;43.512;5.220;2023-11-18T01:32:10;10.63;66.73
65707;SHT31;52423;43.512;5.220;2023-11-18T01:34:35;10.61;66.99
65707;SHT31;52423;43.512;5.220;2023-11-18T01:37:03;10.56;66.72
65707;SHT31;52423;43.512;5.220;2023-11-18T01:39:32;10.57;66.57
65707;SHT31;52423;43.512;5.220;2023-11-18T01:41:58;10.56;66.78
65707;SHT31;52423;43.512;5.220;2023-11-18T01:44:25;10.63;66.61
65707;SHT31;52423;43.512;5.220;2023-11-18T01:46:51;10.56;67.45
65707;SHT31;52423;43.512;5.220;2023-11-18T01:49:17;10.54;66.75
65707;SHT31;52423;43.512;5.220;2023-11-18T01:51:45;10.57;66.72
65707;SHT31;52423;43.512;5.220;2023-11-18T01:54:12;10.54;66.92
65707;SHT31;52423;43.512;5.220;2023-11-18T01:56:46;10.50;67.62
65707;SHT31;52423;43.512;5.220;2023-11-18T01:59:12;10.46;67.40
65707;SHT31;52423;43.512;5.220;2023-11-18T02:01:46;10.49;67.43
65707;SHT31;52423;43.512;5.220;2023-11-18T02:04:13;10.47;67.42
65707;SHT31;52423;43.512;5.220;2023-11-18T02:06:39;10.44;67.65
65707;SHT31;52423;43.512;5.220;2023-11-18T02:09:05;10.43;67.73
65707;SHT31;52423;43.512;5.220;2023-11-18T02:11:36;10.44;68.16
65707;SHT31;52423;43.512;5.220;2023-11-18T02:14:07;10.34;68.65
65707;SHT31;52423;43.512;5.220;2023-11-18T02:16:37;10.30;68.30
65707;SHT31;52423;43.512;5.220;2023-11-18T02:19:08;10.33;68.06
65707;SHT31;52423;43.512;5.220;2023-11-18T02:21:36;10.37;68.14
65707;SHT31;52423;43.512;5.220;2023-11-18T02:24:03;10.34;68.75
65707;SHT31;52423;43.512;5.220;2023-11-18T02:26:29;10.32;68.62
65707;SHT31;52423;43.512;5.220;2023-11-18T02:28:55;10.17;69.74
65707;SHT31;52423;43.512;5.220;2023-11-18T02:31:30;10.16;69.73
65707;SHT31;52423;43.512;5.220;2023-11-18T02:34:14;10.10;69.77
65707;SHT31;52423;43.512;5.220;2023-11-18T02:36:50;10.09;70.15
65707;SHT31;52423;43.512;5.220;2023-11-18T02:39:23;10.12;70.16
65707;SHT31;52423;43.512;5.220;2023-11-18T02:41:52;9.95;70.48
65707;SHT31;52423;43.512;5.220;2023-11-18T02:44:19;10.01;70.24
65707;SHT31;52423;43.512;5.220;2023-11-18T02:46:48;9.91;70.68
65707;SHT31;52423;43.512;5.220;2023-11-18T02:49:13;9.91;70.59
65707;SHT31;52423;43.512;5.220;2023-11-18T02:51:39;9.93;70.61
65707;SHT31;52423;43.512;5.220;2023-11-18T02:54:08;9.83;71.35
65707;SHT31;52423;43.512;5.220;2023-11-18T02:56:36;9.96;69.86
65707;SHT31;52423;43.512;5.220;2023-11-18T02:59:01;9.92;70.46
65707;SHT31;52423;43.512;5.220;2023-11-18T03:01:30;9.85;71.37
65707;SHT31;52423;43.512;5.220;2023-11-18T03:03:56;9.83;70.50
65707;SHT31;52423;43.512;5.220;2023-11-18T03:06:21;9.74;70.75
65707;SHT31;52423;43.512;5.220;2023-11-18T03:08:46;9.61;72.28
65707;SHT31;52423;43.512;5.220;2023-11-18T03:11:12;9.58;70.84
65707;SHT31;52423;43.512;5.220;2023-11-18T03:13:37;9.48;71.76
65707;SHT31;52423;43.512;5.220;2023-11-18T03:16:07;9.44;71.73
65707;SHT31;52423;43.512;5.220;2023-11-18T03:18:37;9.34;72.38
65707;SHT31;52423;43.512;5.220;2023-11-18T03:21:03;9.45;71.62
65707;SHT31;52423;43.512;5.220;2023-11-18T03:23:32;9.47;71.35
65707;SHT31;52423;43.512;5.220;2023-11-18T03:25:57;9.47;71.62
65707;SHT31;52423;43.512;5.220;2023-11-18T03:28:23;9.47;71.54
65707;SHT31;52423;43.512;5.220;2023-11-18T03:30:48;9.48;71.15
65707;SHT31;52423;43.512;5.220;2023-11-18T03:33:14;9.52;70.99
65707;SHT31;52423;43.512;5.220;2023-11-18T03:35:39;9.58;71.43
65707;SHT31;52423;43.512;5.220;2023-11-18T03:38:05;9.62;70.75
65707;SHT31;52423;43.512;5.220;2023-11-18T03:40:30;9.65;70.87
65707;SHT31;52423;43.512;5.220;2023-11-18T03:42:56;9.72;70.59
65707;SHT31;52423;43.512;5.220;2023-11-18T03:45:23;9.70;70.34
65707;SHT31;52423;43.512;5.220;2023-11-18T03:47:49;9.77;70.61
65707;SHT31;52423;43.512;5.220;2023-11-18T03:50:16;9.74;70.74
65707;SHT31;52423;43.512;5.220;2023-11-18T03:52:41;9.72;71.11
65707;SHT31;52423;43.512;5.220;2023-11-18T03:55:07;9.71;70.97
65707;SHT31;52423;43.512;5.220;2023-11-18T03:57:33;9.70;71.13
65707;SHT31;52423;43.512;5.220;2023-11-18T03:59:59;9.68;71.02
65707;SHT31;52423;43.512;5.220;2023-11-18T04:02:25;9.62;71.19
65707;SHT31;52423;43.512;5.220;2023-11-18T04:04:50;9.57;71.27
65707;SHT31;52423;43.512;5.220;2023-11-18T04:07:16;9.51;71.20
65707;SHT31;52423;43.512;5.220;2023-11-18T04:09:41;9.47;71.53
65707;SHT31;52423;43.512;5.220;2023-11-18T04:12:08;9.38;71.90
65707;SHT31;52423;43.512;5.220;2023-11-18T04:14:35;9.31;72.35
65707;SHT31;52423;43.512;5.220;2023-11-18T04:17:00;9.28;72.24
65707;SHT31;52423;43.512;5.220;2023-11-18T04:19:25;9.26;72.30
65707;SHT31;52423;43.512;5.220;2023-11-18T04:21:51;9.23;72.34
65707;SHT31;52423;43.512;5.220;2023-11-18T04:24:16;9.26;72.29
65707;SHT31;52423;43.512;5.220;2023-11-18T04:26:41;9.28;72.18
65707;SHT31;52423;43.512;5.220;2023-11-18T04:29:07;9.27;72.27
65707;SHT31;52423;43.512;5.220;2023-11-18T04:31:32;9.26;72.34
65707;SHT31;52423;43.512;5.220;2023-11-18T04:33:59;9.26;72.29
65707;SHT31;52423;43.512;5.220;2023-11-18T04:36:24;9.23;72.32
65707;SHT31;52423;43.512;5.220;2023-11-18T04:38:51;9.24;72.36
65707;SHT31;52423;43.512;5.220;2023-11-18T04:41:17;9.23;72.59
65707;SHT31;52423;43.512;5.220;2023-11-18T04:43:42;9.19;73.00
65707;SHT31;52423;43.512;5.220;2023-11-18T04:46:08;9.19;72.55
65707;SHT31;52423;43.512;5.220;2023-11-18T04:48:34;9.11;73.10
65707;SHT31;52423;43.512;5.220;2023-11-18T04:51:00;9.20;73.03
65707;SHT31;52423;43.512;5.220;2023-11-18T04:53:25;9.14;73.14
65707;SHT31;52423;43.512;5.220;2023-11-18T04:55:51;9.14;73.27
65707;SHT31;52423;43.512;5.220;2023-11-18T04:58:16;9.14;72.98
65707;SHT31;52423;43.512;5.220;2023-11-18T05:00:42;9.16;72.94
65707;SHT31;52423;43.512;5.220;2023-11-18T05:03:08;9.17;72.82
65707;SHT31;52423;43.512;5.220;2023-11-18T05:05:38;9.21;73.19
65707;SHT31;52423;43.512;5.220;2023-11-18T05:08:07;9.30;72.54
65707;SHT31;52423;43.512;5.220;2023-11-18T05:10:34;9.35;71.92
65707;SHT31;52423;43.512;5.220;2023-11-18T05:13:00;9.37;71.99
65707;SHT31;52423;43.512;5.220;2023-11-18T05:15:26;9.35;72.09
65707;SHT31;52423;43.512;5.220;2023-11-18T05:17:54;9.37;71.98
65707;SHT31;52423;43.512;5.220;2023-11-18T05:20:21;9.33;72.24
65707;SHT31;52423;43.512;5.220;2023-11-18T05:22:47;9.31;72.20
65707;SHT31;52423;43.512;5.220;2023-11-18T05:25:12;9.31;72.41
65707;SHT31;52423;43.512;5.220;2023-11-18T05:27:38;9.27;72.53
65707;SHT31;52423;43.512;5.220;2023-11-18T05:30:10;9.27;72.59
65707;SHT31;52423;43.512;5.220;2023-11-18T05:32:36;9.24;72.74
65707;SHT31;52423;43.512;5.220;2023-11-18T05:35:03;9.21;72.91
65707;SHT31;52423;43.512;5.220;2023-11-18T05:37:30;9.23;72.89
65707;SHT31;52423;43.512;5.220;2023-11-18T05:40:00;9.27;73.27
65707;SHT31;52423;43.512;5.220;2023-11-18T05:42:31;9.31;72.32
65707;SHT31;52423;43.512;5.220;2023-11-18T05:44:56;9.33;72.53
65707;SHT31;52423;43.512;5.220;2023-11-18T05:47:25;9.33;72.58
65707;SHT31;52423;43.512;5.220;2023-11-18T05:49:52;9.31;72.66
65707;SHT31;52423;43.512;5.220;2023-11-18T05:52:17;9.26;72.73
65707;SHT31;52423;43.512;5.220;2023-11-18T05:54:42;9.27;72.83
65707;SHT31;52423;43.512;5.220;2023-11-18T05:57:08;9.24;73.06
65707;SHT31;52423;43.512;5.220;2023-11-18T05:59:33;9.24;72.91
65707;SHT31;52423;43.512;5.220;2023-11-18T06:01:59;9.20;73.01
65707;SHT31;52423;43.512;5.220;2023-11-18T06:04:24;9.21;73.00
65707;SHT31;52423;43.512;5.220;2023-11-18T06:06:50;9.21;72.92
65707;SHT31;52423;43.512;5.220;2023-11-18T06:09:16;9.20;73.11
65707;SHT31;52423;43.512;5.220;2023-11-18T06:11:46;9.19;73.12
65707;SHT31;52423;43.512;5.220;2023-11-18T06:14:12;9.17;73.06
65707;SHT31;52423;43.512;5.220;2023-11-18T06:16:37;9.17;72.92
65707;SHT31;52423;43.512;5.220;2023-11-18T06:19:04;9.19;73.12
65707;SHT31;52423;43.512;5.220;2023-11-18T06:21:30;9.19;72.96
65707;SHT31;52423;43.512;5.220;2023-11-18T06:24:00;9.20;73.04
65707;SHT31;52423;43.512;5.220;2023-11-18T06:26:27;9.19;73.11
65707;SHT31;52423;43.512;5.220;2023-11-18T06:28:56;9.19;72.96
65707;SHT31;52423;43.512;5.220;2023-11-18T06:31:22;9.17;72.85
65707;SHT31;52423;43.512;5.220;2023-11-18T06:33:49;9.24;72.68
65707;SHT31;52423;43.512;5.220;2023-11-18T06:38:48;9.24;73.03
65707;SHT31;52423;43.512;5.220;2023-11-18T06:41:15;9.23;73.28
65707;SHT31;52423;43.512;5.220;2023-11-18T06:43:43;9.24;73.18
65707;SHT31;52423;43.512;5.220;2023-11-18T06:46:22;9.19;73.39
65707;SHT31;52423;43.512;5.220;2023-11-18T06:48:52;9.17;73.56
65707;SHT31;52423;43.512;5.220;2023-11-18T06:51:26;9.23;73.71
65707;SHT31;52423;43.512;5.220;2023-11-18T06:53:56;9.26;73.36
65707;SHT31;52423;43.512;5.220;2023-11-18T06:56:22;9.20;73.68
65707;SHT31;52423;43.512;5.220;2023-11-18T06:58:48;9.20;73.90
65707;SHT31;52423;43.512;5.220;2023-11-18T07:01:14;9.21;74.12
65707;SHT31;52423;43.512;5.220;2023-11-18T07:03:42;9.27;74.26
65707;SHT31;52423;43.512;5.220;2023-11-18T07:06:09;9.27;74.59
65707;SHT31;52423;43.512;5.220;2023-11-18T07:08:38;9.38;73.46
65707;SHT31;52423;43.512;5.220;2023-11-18T07:11:05;9.50;73.34
65707;SHT31;52423;43.512;5.220;2023-11-18T07:13:31;9.59;72.44
65707;SHT31;52423;43.512;5.220;2023-11-18T07:15:59;9.72;72.90
65707;SHT31;52423;43.512;5.220;2023-11-18T07:18:25;9.85;72.72
65707;SHT31;52423;43.512;5.220;2023-11-18T07:20:51;10.03;71.82
65707;SHT31;52423;43.512;5.220;2023-11-18T07:23:21;10.19;70.30
65707;SHT31;52423;43.512;5.220;2023-11-18T07:25:46;10.33;70.86
65707;SHT31;52423;43.512;5.220;2023-11-18T07:28:12;10.51;69.92
65707;SHT31;52423;43.512;5.220;2023-11-18T07:30:43;10.65;69.09
65707;SHT31;52423;43.512;5.220;2023-11-18T07:33:16;10.80;69.70
65707;SHT31;52423;43.512;5.220;2023-11-18T07:35:45;10.94;69.34
65707;SHT31;52423;43.512;5.220;2023-11-18T07:38:11;11.10;68.40
65707;SHT31;52423;43.512;5.220;2023-11-18T07:40:37;11.15;68.32
65707;SHT31;52423;43.512;5.220;2023-11-18T07:43:10;11.26;67.23
65707;SHT31;52423;43.512;5.220;2023-11-18T07:45:36;11.38;68.07
65707;SHT31;52423;43.512;5.220;2023-11-18T07:48:05;11.33;68.03
65707;SHT31;52423;43.512;5.220;2023-11-18T07:50:38;11.47;67.15
65707;SHT31;52423;43.512;5.220;2023-11-18T07:53:06;11.58;67.10
65707;SHT31;52423;43.512;5.220;2023-11-18T07:55:32;11.58;66.90
65707;SHT31;52423;43.512;5.220;2023-11-18T07:58:05;11.59;67.34
65707;SHT31;52423;43.512;5.220;2023-11-18T08:00:36;11.73;66.77
65707;SHT31;52423;43.512;5.220;2023-11-18T08:03:04;11.79;65.62
65707;SHT31;52423;43.512;5.220;2023-11-18T08:05:32;11.79;66.32
65707;SHT31;52423;43.512;5.220;2023-11-18T08:07:58;11.82;65.25
65707;SHT31;52423;43.512;5.220;2023-11-18T08:10:24;11.76;65.83
65707;SHT31;52423;43.512;5.220;2023-11-18T08:12:50;11.76;65.52
65707;SHT31;52423;43.512;5.220;2023-11-18T08:15:17;11.65;65.66
65707;SHT31;52423;43.512;5.220;2023-11-18T08:17:44;11.65;65.27
65707;SHT31;52423;43.512;5.220;2023-11-18T08:20:09;11.62;65.39
65707;SHT31;52423;43.512;5.220;2023-11-18T08:22:41;11.59;65.26
65707;SHT31;52423;43.512;5.220;2023-11-18T08:25:10;11.63;66.19
65707;SHT31;52423;43.512;5.220;2023-11-18T08:27:35;11.73;66.23
65707;SHT31;52423;43.512;5.220;2023-11-18T08:30:01;11.70;65.47
65707;SHT31;52423;43.512;5.220;2023-11-18T08:32:31;11.56;65.93
65707;SHT31;52423;43.512;5.220;2023-11-18T08:34:57;11.49;66.11
65707;SHT31;52423;43.512;5.220;2023-11-18T08:37:22;11.51;67.14
65707;SHT31;52423;43.512;5.220;2023-11-18T08:39:47;11.47;66.70
65707;SHT31;52423;43.512;5.220;2023-11-18T08:42:13;11.42;66.61
65707;SHT31;52423;43.512;5.220;2023-11-18T08:44:40;11.40;66.91
65707;SHT31;52423;43.512;5.220;2023-11-18T08:47:05;11.32;68.37
65707;SHT31;52423;43.512;5.220;2023-11-18T08:49:34;11.26;68.48
65707;SHT31;52423;43.512;5.220;2023-11-18T08:51:59;11.23;68.55
65707;SHT31;52423;43.512;5.220;2023-11-18T08:54:24;11.18;69.06
65707;SHT31;52423;43.512;5.220;2023-11-18T08:57:03;11.15;69.43
65707;SHT31;52423;43.512;5.220;2023-11-18T08:59:29;11.23;69.27
65707;SHT31;52423;43.512;5.220;2023-11-18T09:01:56;11.29;69.39
65707;SHT31;52423;43.512;5.220;2023-11-18T09:04:25;11.33;69.43
65707;SHT31;52423;43.512;5.220;2023-11-18T09:06:51;11.43;69.12
65707;SHT31;52423;43.512;5.220;2023-11-18T09:09:22;11.63;67.85
65707;SHT31;52423;43.512;5.220;2023-11-18T09:11:54;11.83;65.38
65707;SHT31;52423;43.512;5.220;2023-11-18T09:14:21;11.97;65.92
65707;SHT31;52423;43.512;5.220;2023-11-18T09:16:46;12.05;66.70
65707;SHT31;52423;43.512;5.220;2023-11-18T09:19:12;12.21;65.52
65707;SHT31;52423;43.512;5.220;2023-11-18T09:21:37;12.40;65.29
65707;SHT31;52423;43.512;5.220;2023-11-18T09:24:02;12.55;64.94
65707;SHT31;52423;43.512;5.220;2023-11-18T09:26:33;12.61;64.58
65707;SHT31;52423;43.512;5.220;2023-11-18T09:29:00;12.68;63.79
65707;SHT31;52423;43.512;5.220;2023-11-18T09:31:26;12.65;64.00
65707;SHT31;52423;43.512;5.220;2023-11-18T09:33:52;12.75;64.67
65707;SHT31;52423;43.512;5.220;2023-11-18T09:36:19;12.89;63.69
65707;SHT31;52423;43.512;5.220;2023-11-18T09:38:45;12.95;64.12
65707;SHT31;52423;43.512;5.220;2023-11-18T09:41:15;13.00;63.49
65707;SHT31;52423;43.512;5.220;2023-11-18T09:43:45;13.03;63.47
65707;SHT31;52423;43.512;5.220;2023-11-18T09:46:22;12.93;64.24
65707;SHT31;52423;43.512;5.220;2023-11-18T09:48:53;12.83;63.71
65707;SHT31;52423;43.512;5.220;2023-11-18T09:51:32;12.76;63.31
65707;SHT31;52423;43.512;5.220;2023-11-18T09:54:04;12.66;63.12
65707;SHT31;52423;43.512;5.220;2023-11-18T09:56:48;12.58;63.72
65707;SHT31;52423;43.512;5.220;2023-11-18T10:01:53;12.56;63.41
65707;SHT31;52423;43.512;5.220;2023-11-18T10:04:23;12.66;62.87
65707;SHT31;52423;43.512;5.220;2023-11-18T10:06:56;12.71;63.27
65707;SHT31;52423;43.512;5.220;2023-11-18T10:09:23;12.75;62.89
65707;SHT31;52423;43.512;5.220;2023-11-18T10:12:07;12.75;63.49
65707;SHT31;52423;43.512;5.220;2023-11-18T10:14:34;12.76;62.78
65707;SHT31;52423;43.512;5.220;2023-11-18T10:17:03;12.83;60.28
65707;SHT31;52423;43.512;5.220;2023-11-18T10:19:53;12.93;59.31
65707;SHT31;52423;43.512;5.220;2023-11-18T10:22:24;13.04;59.47
65707;SHT31;52423;43.512;5.220;2023-11-18T10:24:52;13.12;59.48
65707;SHT31;52423;43.512;5.220;2023-11-18T10:27:27;13.09;60.36
65707;SHT31;52423;43.512;5.220;2023-11-18T10:30:05;13.10;61.00
65707;SHT31;52423;43.512;5.220;2023-11-18T10:32:38;13.22;61.13
65707;SHT31;52423;43.512;5.220;2023-11-18T10:35:05;13.20;61.09
65707;SHT31;52423;43.512;5.220;2023-11-18T10:37:31;13.14;60.46
65707;SHT31;52423;43.512;5.220;2023-11-18T10:39:56;13.20;60.48
65707;SHT31;52423;43.512;5.220;2023-11-18T10:42:26;13.33;59.73
65707;SHT31;52423;43.512;5.220;2023-11-18T10:44:59;13.40;57.52
65707;SHT31;52423;43.512;5.220;2023-11-18T10:47:26;13.53;57.83
65707;SHT31;52423;43.512;5.220;2023-11-18T10:49:55;13.63;58.90
65707;SHT31;52423;43.512;5.220;2023-11-18T10:52:22;13.71;57.81
65707;SHT31;52423;43.512;5.220;2023-11-18T10:54:50;13.85;55.81
65707;SHT31;52423;43.512;5.220;2023-11-18T10:57:20;13.88;57.39
65707;SHT31;52423;43.512;5.220;2023-11-18T11:00:02;13.85;57.58
65707;SHT31;52423;43.512;5.220;2023-11-18T11:02:32;13.92;57.89
65707;SHT31;52423;43.512;5.220;2023-11-18T11:05:03;13.95;58.64
65707;SHT31;52423;43.512;5.220;2023-11-18T11:07:29;13.97;56.62
65707;SHT31;52423;43.512;5.220;2023-11-18T11:09:55;13.94;57.40
65707;SHT31;52423;43.512;5.220;2023-11-18T11:12:23;13.84;56.97
65707;SHT31;52423;43.512;5.220;2023-11-18T11:15:00;14.21;55.08
65707;SHT31;52423;43.512;5.220;2023-11-18T11:17:29;14.25;57.36
65707;SHT31;52423;43.512;5.220;2023-11-18T11:20:08;14.39;55.52
65707;SHT31;52423;43.512;5.220;2023-11-18T11:23:01;14.44;55.06
65707;SHT31;52423;43.512;5.220;2023-11-18T11:31:14;14.69;55.89
65707;SHT31;52423;43.512;5.220;2023-11-18T11:33:55;14.66;54.92
65707;SHT31;52423;43.512;5.220;2023-11-18T11:36:29;14.79;54.10
65707;SHT31;52423;43.512;5.220;2023-11-18T11:38:59;14.81;54.71
65707;SHT31;52423;43.512;5.220;2023-11-18T11:41:24;14.93;54.21
65707;SHT31;52423;43.512;5.220;2023-11-18T11:43:53;14.87;55.47
65707;SHT31;52423;43.512;5.220;2023-11-18T11:46:26;14.85;53.60
65707;SHT31;52423;43.512;5.220;2023-11-18T11:49:01;14.93;53.57
65707;SHT31;52423;43.512;5.220;2023-11-18T11:51:37;14.98;52.04
65707;SHT31;52423;43.512;5.220;2023-11-18T11:54:13;15.00;53.06
65707;SHT31;52423;43.512;5.220;2023-11-18T11:56:43;15.00;52.63
65707;SHT31;52423;43.512;5.220;2023-11-18T11:59:09;14.98;52.53
65707;SHT31;52423;43.512;5.220;2023-11-18T12:01:36;14.97;52.67
65707;SHT31;52423;43.512;5.220;2023-11-18T12:04:08;15.05;53.52
65707;SHT31;52423;43.512;5.220;2023-11-18T12:06:42;15.10;52.16
65707;SHT31;52423;43.512;5.220;2023-11-18T12:09:09;15.11;50.53
65707;SHT31;52423;43.512;5.220;2023-11-18T12:11:35;15.15;49.26
65707;SHT31;52423;43.512;5.220;2023-11-18T12:14:08;15.20;51.18
65707;SHT31;52423;43.512;5.220;2023-11-18T12:17:02;15.44;47.85
65707;SHT31;52423;43.512;5.220;2023-11-18T12:19:37;15.41;49.12
65707;SHT31;52423;43.512;5.220;2023-11-18T12:22:16;15.36;45.61
65707;SHT31;52423;43.512;5.220;2023-11-18T12:24:46;15.42;47.67
65707;SHT31;52423;43.512;5.220;2023-11-18T12:27:13;15.38;48.19
65707;SHT31;52423;43.512;5.220;2023-11-18T12:29:42;15.42;47.24
65707;SHT31;52423;43.512;5.220;2023-11-18T12:35:20;15.38;50.25
65707;SHT31;52423;43.512;5.220;2023-11-18T12:40:52;15.44;48.38
65707;SHT31;52423;43.512;5.220;2023-11-18T12:43:43;15.51;48.56
65707;SHT31;52423;43.512;5.220;2023-11-18T12:48:57;15.61;48.10
65707;SHT31;52423;43.512;5.220;2023-11-18T12:51:25;15.56;49.63
65707;SHT31;52423;43.512;5.220;2023-11-18T12:53:51;15.51;51.27
65707;SHT31;52423;43.512;5.220;2023-11-18T12:56:19;15.42;51.14
65707;SHT31;52423;43.512;5.220;2023-11-18T12:58:46;15.48;51.00
65707;SHT31;52423;43.512;5.220;2023-11-18T13:01:12;15.55;51.26
65707;SHT31;52423;43.512;5.220;2023-11-18T13:03:40;15.69;51.47
65707;SHT31;52423;43.512;5.220;2023-11-18T13:06:08;15.79;50.48
65707;SHT31;52423;43.512;5.220;2023-11-18T13:08:34;15.78;51.10
65707;SHT31;52423;43.512;5.220;2023-11-18T13:11:00;15.82;49.81
65707;SHT31;52423;43.512;5.220;2023-11-18T13:13:33;15.81;51.74
65707;SHT31;52423;43.512;5.220;2023-11-18T13:15:58;15.67;51.24
65707;SHT31;52423;43.512;5.220;2023-11-18T13:18:24;15.66;50.81
65707;SHT31;52423;43.512;5.220;2023-11-18T13:20:56;15.65;50.67
65707;SHT31;52423;43.512;5.220;2023-11-18T13:23:24;15.53;52.93
65707;SHT31;52423;43.512;5.220;2023-11-18T13:25:50;15.56;51.05
65707;SHT31;52423;43.512;5.220;2023-11-18T13:28:22;15.56;51.91
65707;SHT31;52423;43.512;5.220;2023-11-18T13:30:48;15.56;51.89
65707;SHT31;52423;43.512;5.220;2023-11-18T13:33:14;15.59;51.99
65707;SHT31;52423;43.512;5.220;2023-11-18T13:35:40;15.70;48.62
65707;SHT31;52423;43.512;5.220;2023-11-18T13:38:05;15.79;49.51
65707;SHT31;52423;43.512;5.220;2023-11-18T13:40:44;15.70;52.00
65707;SHT31;52423;43.512;5.220;2023-11-18T13:43:09;15.72;51.88
65707;SHT31;52423;43.512;5.220;2023-11-18T13:45:35;15.73;53.26
65707;SHT31;52423;43.512;5.220;2023-11-18T13:48:01;15.72;51.90
65707;SHT31;52423;43.512;5.220;2023-11-18T13:50:27;15.69;52.16
65707;SHT31;52423;43.512;5.220;2023-11-18T13:52:53;15.63;53.09
65707;SHT31;52423;43.512;5.220;2023-11-18T13:55:19;15.63;52.90
65707;SHT31;52423;43.512;5.220;2023-11-18T13:57:52;15.82;51.15
65707;SHT31;52423;43.512;5.220;2023-11-18T14:00:18;15.82;52.53
65707;SHT31;52423;43.512;5.220;2023-11-18T14:02:48;15.79;53.01
65707;SHT31;52423;43.512;5.220;2023-11-18T14:05:18;15.79;52.38
65707;SHT31;52423;43.512;5.220;2023-11-18T14:07:45;15.81;53.55
65707;SHT31;52423;43.512;5.220;2023-11-18T14:10:12;15.72;54.26
65707;SHT31;52423;43.512;5.220;2023-11-18T14:12:58;15.75;54.17
65707;SHT31;52423;43.512;5.220;2023-11-18T14:15:23;15.79;55.19
65707;SHT31;52423;43.512;5.220;2023-11-18T14:17:49;15.81;54.76
65707;SHT31;52423;43.512;5.220;2023-11-18T14:20:18;15.81;54.52
65707;SHT31;52423;43.512;5.220;2023-11-18T14:22:43;15.76;53.95
65707;SHT31;52423;43.512;5.220;2023-11-18T14:25:08;15.78;55.91
65707;SHT31;52423;43.512;5.220;2023-11-18T14:27:34;15.78;56.61
65707;SHT31;52423;43.512;5.220;2023-11-18T14:29:59;15.83;55.40
65707;SHT31;52423;43.512;5.220;2023-11-18T14:32:25;15.79;56.70
65707;SHT31;52423;43.512;5.220;2023-11-18T14:34:51;15.76;56.64
65707;SHT31;52423;43.512;5.220;2023-11-18T14:37:19;15.70;56.02
65707;SHT31;52423;43.512;5.220;2023-11-18T14:39:44;15.67;56.36
65707;SHT31;52423;43.512;5.220;2023-11-18T14:42:10;15.62;56.74
65707;SHT31;52423;43.512;5.220;2023-11-18T14:44:35;15.62;57.20
65707;SHT31;52423;43.512;5.220;2023-11-18T14:47:01;15.58;56.86
65707;SHT31;52423;43.512;5.220;2023-11-18T14:49:27;15.45;57.63
65707;SHT31;52423;43.512;5.220;2023-11-18T14:51:52;15.31;58.63
65707;SHT31;52423;43.512;5.220;2023-11-18T14:54:17;15.22;58.65
65707;SHT31;52423;43.512;5.220;2023-11-18T14:56:44;15.12;58.94
65707;SHT31;52423;43.512;5.220;2023-11-18T14:59:11;15.10;57.24
65707;SHT31;52423;43.512;5.220;2023-11-18T15:01:37;15.01;58.61
65707;SHT31;52423;43.512;5.220;2023-11-18T15:04:02;14.98;60.16
65707;SHT31;52423;43.512;5.220;2023-11-18T15:06:30;14.93;59.66
65707;SHT31;52423;43.512;5.220;2023-11-18T15:08:56;14.90;60.94
65707;SHT31;52423;43.512;5.220;2023-11-18T15:11:23;14.90;60.80
65707;SHT31;52423;43.512;5.220;2023-11-18T15:13:49;14.77;60.18
65707;SHT31;52423;43.512;5.220;2023-11-18T15:16:15;14.73;60.29
65707;SHT31;52423;43.512;5.220;2023-11-18T15:18:43;14.69;60.16
65707;SHT31;52423;43.512;5.220;2023-11-18T15:21:12;14.70;59.44
65707;SHT31;52423;43.512;5.220;2023-11-18T15:23:40;14.70;55.60
65707;SHT31;52423;43.512;5.220;2023-11-18T15:26:07;14.73;55.71
65707;SHT31;52423;43.512;5.220;2023-11-18T15:28:32;14.79;55.18
65707;SHT31;52423;43.512;5.220;2023-11-18T15:30:57;14.73;55.45
65707;SHT31;52423;43.512;5.220;2023-11-18T15:33:23;14.73;55.86
65707;SHT31;52423;43.512;5.220;2023-11-18T15:35:49;14.69;54.09
65707;SHT31;52423;43.512;5.220;2023-11-18T15:38:14;14.64;56.26
65707;SHT31;52423;43.512;5.220;2023-11-18T15:40:42;14.59;54.55
65707;SHT31;52423;43.512;5.220;2023-11-18T15:43:08;14.56;54.68
65707;SHT31;52423;43.512;5.220;2023-11-18T15:45:37;14.53;54.74
65707;SHT31;52423;43.512;5.220;2023-11-18T15:48:02;14.42;55.30
65707;SHT31;52423;43.512;5.220;2023-11-18T15:50:31;14.33;55.46
65707;SHT31;52423;43.512;5.220;2023-11-18T15:52:56;14.32;54.95
65707;SHT31;52423;43.512;5.220;2023-11-18T15:55:22;14.28;55.42
65707;SHT31;52423;43.512;5.220;2023-11-18T15:57:50;14.29;55.45
65707;SHT31;52423;43.512;5.220;2023-11-18T16:00:23;14.23;55.61